createdAt,value
2023-03-11T00:00:47.685Z,95134.94
2023-03-11T00:03:16.756Z,95127.84
2023-03-11T00:05:46.230Z,95126.00
2023-03-11T00:08:15.420Z,95116.28
2023-03-11T00:10:44.798Z,95118.13
2023-03-11T00:13:15.656Z,95110.06
2023-03-11T00:15:44.194Z,95115.44
2023-03-11T00:18:12.298Z,95114.59
2023-03-11T00:20:41.537Z,95114.75
2023-03-11T00:23:09.820Z,95106.69
2023-03-11T00:25:38.596Z,95106.69
2023-03-11T00:28:07.317Z,95118.41
2023-03-11T00:30:37.516Z,95120.28
2023-03-11T00:33:05.648Z,95121.09
2023-03-11T00:35:34.353Z,95113.22
2023-03-11T00:38:03.186Z,95124.81
2023-03-11T00:40:32.623Z,95124.81
2023-03-11T00:43:03.517Z,95118.59
2023-03-11T00:45:31.671Z,95115.06
2023-03-11T00:48:01.265Z,95116.91
2023-03-11T00:50:30.526Z,95117.91
2023-03-11T00:52:58.692Z,95124.13
2023-03-11T00:55:28.034Z,95126.81
2023-03-11T00:57:56.704Z,95134.03
2023-03-11T01:00:27.673Z,95118.91
2023-03-11T01:02:57.032Z,95110.84
2023-03-11T01:05:28.316Z,95125.09
2023-03-11T01:07:56.702Z,95122.41
2023-03-11T01:10:24.915Z,95124.28
2023-03-11T01:12:53.045Z,95120.75
2023-03-11T01:15:23.634Z,95131.50
2023-03-11T01:17:51.732Z,95137.84
2023-03-11T01:20:19.988Z,95135.16
2023-03-11T01:22:49.509Z,95137.84
2023-03-11T01:25:19.257Z,95143.22
2023-03-11T01:27:47.469Z,95137.84
2023-03-11T01:30:16.855Z,95146.94
2023-03-11T01:32:45.054Z,95149.63
2023-03-11T01:35:14.490Z,95150.47
2023-03-11T01:37:42.622Z,95153.28
2023-03-11T01:40:15.339Z,95164.03
2023-03-11T01:42:43.571Z,95159.66
2023-03-11T01:45:31.361Z,95156.13
2023-03-11T01:47:59.540Z,95158.81
2023-03-11T01:50:28.590Z,95161.50
2023-03-11T01:52:56.921Z,95159.84
2023-03-11T01:55:26.366Z,95171.41
2023-03-11T01:57:54.482Z,95168.72
2023-03-11T02:00:23.131Z,95160.81
2023-03-11T02:02:52.562Z,95151.91
2023-03-11T02:05:21.682Z,95151.91
2023-03-11T02:07:50.300Z,95151.91
2023-03-11T02:10:20.158Z,95159.16
2023-03-11T02:12:50.206Z,95154.59
2023-03-11T02:15:23.976Z,95161.84
2023-03-11T02:17:52.730Z,95159.97
2023-03-11T02:20:29.188Z,95166.19
2023-03-11T02:22:57.473Z,95165.34
2023-03-11T02:25:28.618Z,95171.72
2023-03-11T02:27:58.168Z,95174.41
2023-03-11T02:30:27.872Z,95171.72
2023-03-11T02:32:56.323Z,95166.34
2023-03-11T02:35:25.165Z,95167.34
2023-03-11T02:37:55.775Z,95162.97
2023-03-11T02:40:49.873Z,95166.66
2023-03-11T02:43:24.536Z,95161.28
2023-03-11T02:45:52.818Z,95163.97
2023-03-11T02:48:21.665Z,95164.13
2023-03-11T02:50:50.113Z,95170.34
2023-03-11T02:53:20.295Z,95165.97
2023-03-11T02:55:48.518Z,95169.66
2023-03-11T02:58:16.700Z,95187.44
2023-03-11T03:00:46.325Z,95192.81
2023-03-11T03:03:14.591Z,95196.34
2023-03-11T03:05:42.926Z,95186.75
2023-03-11T03:08:11.241Z,95192.97
2023-03-11T03:10:40.133Z,95200.19
2023-03-11T03:13:08.263Z,95202.06
2023-03-11T03:15:36.406Z,95202.88
2023-03-11T03:18:06.179Z,95199.38
2023-03-11T03:20:34.381Z,95198.50
2023-03-11T03:23:03.665Z,95198.50
2023-03-11T03:25:33.529Z,95202.19
2023-03-11T03:28:06.014Z,95202.19
2023-03-11T03:30:37.421Z,95198.50
2023-03-11T03:33:07.213Z,95206.72
2023-03-11T03:35:35.468Z,95212.09
2023-03-11T03:38:23.824Z,95203.19
2023-03-11T03:40:53.704Z,95211.25
2023-03-11T03:43:22.944Z,95205.88
2023-03-11T03:46:01.592Z,95212.22
2023-03-11T03:48:35.200Z,95209.53
2023-03-11T03:51:06.801Z,95198.81
2023-03-11T03:53:35.775Z,95213.25
2023-03-11T03:56:04.979Z,95186.41
2023-03-11T03:58:34.592Z,95190.75
2023-03-11T04:01:04.126Z,95186.41
2023-03-11T04:03:35.277Z,95188.06
2023-03-11T04:06:09.710Z,95193.59
2023-03-11T04:08:38.029Z,95201.66
2023-03-11T04:11:06.240Z,95199.81
2023-03-11T04:13:36.566Z,95187.38
2023-03-11T04:16:05.642Z,95184.69
2023-03-11T04:18:35.600Z,95185.72
2023-03-11T04:21:06.766Z,95187.53
2023-03-11T04:23:35.703Z,95193.75
2023-03-11T04:26:04.314Z,95194.63
2023-03-11T04:28:32.675Z,95216.09
2023-03-11T04:31:00.945Z,95224.97
2023-03-11T04:33:29.968Z,95225.97
2023-03-11T04:36:00.118Z,95220.78
2023-03-11T04:38:29.663Z,95248.44
2023-03-11T04:41:01.691Z,95242.09
2023-03-11T04:43:30.333Z,95248.44
2023-03-11T04:45:58.698Z,95248.44
2023-03-11T04:48:27.774Z,95261.06
2023-03-11T04:50:56.833Z,95266.44
2023-03-11T04:53:27.056Z,95254.84
2023-03-11T04:55:55.945Z,95238.72
2023-03-11T04:58:24.146Z,95253.97
2023-03-11T05:00:53.245Z,95246.78
2023-03-11T05:03:22.329Z,95242.38
2023-03-11T05:05:50.488Z,95230.81
2023-03-11T05:08:20.781Z,95240.72
2023-03-11T05:10:50.328Z,95248.78
2023-03-11T05:13:18.511Z,95241.69
2023-03-11T05:15:46.677Z,95250.59
2023-03-11T05:18:15.031Z,95256.13
2023-03-11T05:20:43.431Z,95244.53
2023-03-11T05:23:13.194Z,95248.06
2023-03-11T05:25:42.076Z,95241.00
2023-03-11T05:28:12.578Z,95243.69
2023-03-11T05:30:46.678Z,95227.56
2023-03-11T05:33:14.930Z,95244.69
2023-03-11T05:35:43.679Z,95256.28
2023-03-11T05:38:11.938Z,95243.84
2023-03-11T05:40:40.179Z,95266.19
2023-03-11T05:43:08.429Z,95275.22
2023-03-11T05:45:41.133Z,95261.66
2023-03-11T05:48:09.512Z,95264.47
2023-03-11T05:50:39.275Z,95260.97
2023-03-11T05:53:08.044Z,95262.81
2023-03-11T05:55:36.449Z,95267.16
2023-03-11T05:58:05.182Z,95271.72
2023-03-11T06:00:33.630Z,95256.59
2023-03-11T06:03:05.811Z,95273.53
2023-03-11T06:05:34.160Z,95261.09
2023-03-11T06:08:02.279Z,95256.59
2023-03-11T06:10:30.444Z,95277.22
2023-03-11T06:12:58.704Z,95275.38
2023-03-11T06:15:30.308Z,95268.16
2023-03-11T06:17:59.403Z,95289.66
2023-03-11T06:20:29.157Z,95282.44
2023-03-11T06:22:57.340Z,95291.31
2023-03-11T06:25:26.610Z,95291.31
2023-03-11T06:27:55.704Z,95288.66
2023-03-11T06:30:25.529Z,95293.03
2023-03-11T06:33:15.594Z,95301.94
2023-03-11T06:35:46.056Z,95305.59
2023-03-11T06:38:14.294Z,95304.63
2023-03-11T06:40:42.556Z,95321.56
2023-03-11T06:43:10.857Z,95318.06
2023-03-11T06:45:41.994Z,95321.56
2023-03-11T06:48:10.835Z,95343.03
2023-03-11T06:50:40.784Z,95340.22
2023-03-11T06:53:11.337Z,95341.03
2023-03-11T06:55:39.897Z,95337.38
2023-03-11T06:58:08.282Z,95337.38
2023-03-11T07:00:36.447Z,95346.28
2023-03-11T07:03:05.013Z,95340.06
2023-03-11T07:05:33.171Z,95360.53
2023-03-11T07:08:06.894Z,95366.75
2023-03-11T07:10:36.892Z,95369.44
2023-03-11T07:13:05.020Z,95356.03
2023-03-11T07:15:33.362Z,95364.06
2023-03-11T07:18:01.539Z,95366.75
2023-03-11T07:20:29.702Z,95365.09
2023-03-11T07:22:57.841Z,95373.16
2023-03-11T07:25:25.925Z,95385.72
2023-03-11T07:27:55.469Z,95379.34
2023-03-11T07:30:23.565Z,95383.88
2023-03-11T07:32:51.661Z,95379.50
2023-03-11T07:35:19.913Z,95390.94
2023-03-11T07:37:48.025Z,95386.41
2023-03-11T07:40:17.265Z,95387.41
2023-03-11T07:42:45.368Z,95387.28
2023-03-11T07:45:15.310Z,95390.78
2023-03-11T07:47:43.416Z,95395.31
2023-03-11T07:50:12.569Z,95388.25
2023-03-11T07:52:40.689Z,95390.78
2023-03-11T07:55:09.352Z,95397.00
2023-03-11T07:57:37.430Z,95381.75
2023-03-11T08:00:06.233Z,95392.03
2023-03-11T08:02:41.287Z,95399.63
2023-03-11T08:05:10.152Z,95407.41
2023-03-11T08:07:38.251Z,95412.47
2023-03-11T08:10:07.007Z,95416.84
2023-03-11T08:12:35.151Z,95415.72
2023-03-11T08:15:03.266Z,95415.03
2023-03-11T08:17:31.367Z,95418.53
2023-03-11T08:20:01.565Z,95434.81
2023-03-11T08:22:29.625Z,95438.34
2023-03-11T08:24:57.930Z,95445.69
2023-03-11T08:27:26.000Z,95439.47
2023-03-11T08:29:54.718Z,95437.66
2023-03-11T08:32:23.000Z,95440.50
2023-03-11T08:34:51.224Z,95457.59
2023-03-11T08:37:22.739Z,95445.00
2023-03-11T08:39:52.173Z,95449.53
2023-03-11T08:42:21.054Z,95462.78
2023-03-11T08:44:49.187Z,95464.50
2023-03-11T08:47:17.358Z,95474.41
2023-03-11T08:49:45.438Z,95463.66
2023-03-11T08:52:13.587Z,95473.53
2023-03-11T08:54:43.088Z,95486.00
2023-03-11T08:57:11.191Z,95486.00
2023-03-11T08:59:40.299Z,95480.78
2023-03-11T09:02:08.425Z,95484.28
2023-03-11T09:04:36.576Z,95466.50
2023-03-11T09:07:04.703Z,95502.13
2023-03-11T09:09:33.189Z,95498.41
2023-03-11T09:12:02.850Z,95496.91
2023-03-11T09:14:31.002Z,95503.09
2023-03-11T09:16:59.240Z,95492.50
2023-03-11T09:19:27.417Z,95498.03
2023-03-11T09:21:55.488Z,95502.53
2023-03-11T09:24:23.595Z,95517.69
2023-03-11T09:26:51.696Z,95510.31
2023-03-11T09:29:21.153Z,95530.97
2023-03-11T09:31:49.324Z,95528.97
2023-03-11T09:34:17.500Z,95529.94
2023-03-11T09:36:45.560Z,95537.03
2023-03-11T09:39:13.717Z,95548.63
2023-03-11T09:41:57.116Z,95544.94
2023-03-11T09:44:30.183Z,95555.69
2023-03-11T09:47:29.011Z,95557.50
2023-03-11T09:50:35.312Z,95561.06
2023-03-11T09:53:10.275Z,95553.00
2023-03-11T09:55:40.408Z,95557.50
2023-03-11T09:58:12.584Z,95564.59
2023-03-11T10:00:42.332Z,95576.31
2023-03-11T10:03:16.844Z,95572.22
2023-03-11T10:05:45.184Z,95589.34
2023-03-11T10:08:17.478Z,95574.91
2023-03-11T10:10:48.572Z,95585.66
2023-03-11T10:13:18.427Z,95588.06
2023-03-11T10:15:49.466Z,95582.69
2023-03-11T10:18:42.240Z,95579.84
2023-03-11T10:21:13.234Z,95589.63
2023-03-11T10:23:51.645Z,95601.34
2023-03-11T10:26:20.794Z,95596.97
2023-03-11T10:28:52.360Z,95598.81
2023-03-11T10:31:23.770Z,95602.47
2023-03-11T10:33:53.707Z,95612.25
2023-03-11T10:36:24.600Z,95608.84
2023-03-11T10:38:53.566Z,95615.91
2023-03-11T10:41:23.257Z,95623.16
2023-03-11T10:43:53.672Z,95624.81
2023-03-11T10:46:27.749Z,95613.94
2023-03-11T10:48:55.941Z,95626.38
2023-03-11T10:51:24.452Z,95620.16
2023-03-11T10:53:53.472Z,95618.00
2023-03-11T10:56:32.441Z,95618.00
2023-03-11T10:59:00.861Z,95625.09
2023-03-11T11:01:30.782Z,95627.78
2023-03-11T11:04:00.904Z,95623.28
2023-03-11T11:06:30.488Z,95630.31
2023-03-11T11:09:25.073Z,95631.19
2023-03-11T11:12:05.456Z,95624.78
2023-03-11T11:14:50.241Z,95616.72
2023-03-11T11:17:21.486Z,95618.44
2023-03-11T11:19:49.924Z,95616.63
2023-03-11T11:22:18.821Z,95629.91
2023-03-11T11:24:47.293Z,95626.19
2023-03-11T11:27:19.096Z,95624.38
2023-03-11T11:29:47.470Z,95626.06
2023-03-11T11:32:22.184Z,95630.59
2023-03-11T11:34:55.363Z,95624.22
2023-03-11T11:37:24.108Z,95620.69
2023-03-11T11:39:54.529Z,95630.44
2023-03-11T11:42:22.853Z,95617.88
2023-03-11T11:44:52.513Z,95619.53
2023-03-11T11:47:23.843Z,95618.56
2023-03-11T11:49:53.403Z,95632.69
2023-03-11T11:52:21.948Z,95629.16
2023-03-11T11:54:52.415Z,95631.84
2023-03-11T11:57:21.040Z,95635.38
2023-03-11T11:59:49.112Z,95642.44
2023-03-11T12:02:29.645Z,95645.13
2023-03-11T12:04:58.158Z,95629.72
2023-03-11T12:07:36.522Z,95649.38
2023-03-11T12:10:22.843Z,95645.72
2023-03-11T12:13:14.280Z,95644.84
2023-03-11T12:15:43.215Z,95630.56
2023-03-11T12:18:14.444Z,95640.19
2023-03-11T12:20:43.767Z,95644.69
2023-03-11T12:23:18.606Z,95648.25
2023-03-11T12:26:16.340Z,95648.09
2023-03-11T12:28:46.939Z,95650.78
2023-03-11T12:31:15.131Z,95642.72
2023-03-11T12:33:45.526Z,95648.94
2023-03-11T12:36:23.636Z,95642.56
2023-03-11T12:38:51.857Z,95646.09
2023-03-11T12:41:31.059Z,95645.09
2023-03-11T12:44:04.284Z,95644.97
2023-03-11T12:47:11.652Z,95644.13
2023-03-11T12:49:41.552Z,95634.06
2023-03-11T12:52:23.385Z,95659.81
2023-03-11T12:55:12.557Z,95662.34
2023-03-11T12:57:42.509Z,95656.97
2023-03-11T13:00:18.725Z,95661.34
2023-03-11T13:03:19.269Z,95668.56
2023-03-11T13:05:58.931Z,95668.56
2023-03-11T13:08:27.235Z,95671.13
2023-03-11T13:10:55.592Z,95688.09
2023-03-11T13:13:31.604Z,95669.28
2023-03-11T13:15:59.991Z,95689.81
2023-03-11T13:18:28.392Z,95683.44
2023-03-11T13:21:00.015Z,95689.66
2023-03-11T13:23:33.834Z,95686.97
2023-03-11T13:26:26.928Z,95695.88
2023-03-11T13:29:35.224Z,95697.72
2023-03-11T13:32:26.134Z,95711.16
2023-03-11T13:34:59.836Z,95716.53
2023-03-11T13:37:32.529Z,95711.16
2023-03-11T13:40:14.098Z,95727.28
2023-03-11T13:42:45.048Z,95723.63
2023-03-11T13:45:19.926Z,95721.09
2023-03-11T13:47:49.653Z,95725.16
2023-03-11T13:50:21.761Z,95728.28
2023-03-11T13:52:53.598Z,95737.63
2023-03-11T13:55:22.301Z,95737.66
2023-03-11T13:57:53.748Z,95740.06
2023-03-11T14:00:24.274Z,95744.16
2023-03-11T14:02:55.271Z,95748.66
2023-03-11T14:05:25.205Z,95748.41
2023-03-11T14:07:54.675Z,95748.09
2023-03-11T14:10:27.902Z,95763.94
2023-03-11T14:13:15.600Z,95764.81
2023-03-11T14:15:49.703Z,95759.84
2023-03-11T14:18:28.821Z,95763.38
2023-03-11T14:20:57.360Z,95765.94
2023-03-11T14:23:29.813Z,95765.78
2023-03-11T14:26:02.576Z,95777.69
2023-03-11T14:28:30.688Z,95790.97
2023-03-11T14:30:58.973Z,95786.84
2023-03-11T14:33:27.202Z,95797.31
2023-03-11T14:35:56.427Z,95778.91
2023-03-11T14:38:26.720Z,95788.13
2023-03-11T14:40:55.833Z,95784.84
2023-03-11T14:43:23.900Z,95787.97
2023-03-11T14:45:52.565Z,95789.94
2023-03-11T14:48:21.616Z,95800.41
2023-03-11T14:50:50.363Z,95805.34
2023-03-11T14:53:20.122Z,95807.75
2023-03-11T14:55:51.211Z,95810.19
2023-03-11T14:58:22.109Z,95808.19
2023-03-11T15:00:51.228Z,95819.66
2023-03-11T15:03:23.746Z,95818.53
2023-03-11T15:05:52.703Z,95827.16
2023-03-11T15:08:21.602Z,95833.09
2023-03-11T15:11:08.540Z,95827.44
2023-03-11T15:13:36.757Z,95836.94
2023-03-11T15:16:06.627Z,95839.31
2023-03-11T15:18:37.541Z,95851.63
2023-03-11T15:21:07.835Z,95843.28
2023-03-11T15:23:36.490Z,95849.25
2023-03-11T15:26:07.185Z,95865.22
2023-03-11T15:28:43.845Z,95854.16
2023-03-11T15:31:31.343Z,95865.63
2023-03-11T15:34:21.127Z,95863.66
2023-03-11T15:36:56.892Z,95873.53
2023-03-11T15:39:28.820Z,95875.41
2023-03-11T15:42:03.678Z,95883.31
2023-03-11T15:44:32.672Z,95874.13
2023-03-11T15:47:00.975Z,95881.91
2023-03-11T15:49:29.913Z,95888.13
2023-03-11T15:52:00.950Z,95895.09
2023-03-11T15:54:30.389Z,95895.91
2023-03-11T15:57:00.764Z,95907.41
2023-03-11T15:59:30.683Z,95905.94
2023-03-11T16:01:59.583Z,95906.09
2023-03-11T16:04:27.873Z,95922.22
2023-03-11T16:07:07.341Z,95921.38
2023-03-11T16:09:36.275Z,95922.06
2023-03-11T16:12:11.324Z,95936.38
2023-03-11T16:14:40.869Z,95943.47
2023-03-11T16:17:08.935Z,95947.88
2023-03-11T16:19:37.109Z,95954.97
2023-03-11T16:22:05.201Z,95959.34
2023-03-11T16:24:33.349Z,95967.56
2023-03-11T16:27:01.443Z,95975.03
2023-03-11T16:29:29.533Z,95982.38
2023-03-11T16:31:58.980Z,95986.75
2023-03-11T16:34:27.233Z,95990.28
2023-03-11T16:36:55.568Z,95993.13
2023-03-11T16:39:23.681Z,96010.22
2023-03-11T16:41:52.011Z,96011.22
2023-03-11T16:44:20.161Z,96018.28
2023-03-11T16:46:48.317Z,96023.66
2023-03-11T16:49:18.156Z,96020.97
2023-03-11T16:51:46.686Z,96034.41
2023-03-11T16:54:14.776Z,96034.56
2023-03-11T16:56:42.899Z,96044.31
2023-03-11T16:59:10.967Z,96051.53
2023-03-11T17:01:39.194Z,96053.38
2023-03-11T17:04:07.827Z,96054.22
2023-03-11T17:06:37.285Z,96060.56
2023-03-11T17:09:05.621Z,96049.41
2023-03-11T17:11:34.478Z,96058.44
2023-03-11T17:14:15.547Z,96061.13
2023-03-11T17:16:44.313Z,96076.41
2023-03-11T17:19:12.416Z,96067.50
2023-03-11T17:21:42.044Z,96088.16
2023-03-11T17:24:10.658Z,96087.28
2023-03-11T17:26:38.808Z,96102.59
2023-03-11T17:29:06.942Z,96110.50
2023-03-11T17:31:35.079Z,96105.28
2023-03-11T17:34:03.548Z,96107.97
2023-03-11T17:36:31.614Z,96111.63
2023-03-11T17:39:01.108Z,96116.13
2023-03-11T17:41:29.237Z,96131.28
2023-03-11T17:43:57.334Z,96130.44
2023-03-11T17:46:25.579Z,96126.88
2023-03-11T17:48:53.752Z,96136.81
2023-03-11T17:51:22.533Z,96145.69
2023-03-11T17:53:50.732Z,96146.56
2023-03-11T17:56:20.373Z,96155.47
2023-03-11T17:58:48.554Z,96160.84
2023-03-11T18:01:18.057Z,96161.72
2023-03-11T18:03:46.194Z,96171.47
2023-03-11T18:06:14.371Z,96169.63
2023-03-11T18:08:42.473Z,96180.38
2023-03-11T18:11:11.941Z,96182.06
2023-03-11T18:13:41.459Z,96193.69
2023-03-11T18:16:10.511Z,96197.22
2023-03-11T18:18:38.664Z,96200.88
2023-03-11T18:21:07.721Z,96204.44
2023-03-11T18:23:35.891Z,96208.13
2023-03-11T18:26:04.994Z,96218.72
2023-03-11T18:28:33.162Z,96219.56
2023-03-11T18:31:07.982Z,96215.91
2023-03-11T18:33:36.079Z,96223.09
2023-03-11T18:36:13.424Z,96222.25
2023-03-11T18:38:41.515Z,96228.34
2023-03-11T18:41:09.608Z,96236.41
2023-03-11T18:43:37.851Z,96233.84
2023-03-11T18:46:10.051Z,96241.91
2023-03-11T18:48:38.266Z,96241.91
2023-03-11T18:51:07.102Z,96246.44
2023-03-11T18:53:35.279Z,96251.72
2023-03-11T18:56:05.024Z,96250.00
2023-03-11T18:58:33.150Z,96250.00
2023-03-11T19:01:04.985Z,96268.66
2023-03-11T19:03:34.633Z,96268.56
2023-03-11T19:06:02.661Z,96265.88
2023-03-11T19:08:30.842Z,96272.94
2023-03-11T19:10:58.944Z,96267.56
2023-03-11T19:13:40.714Z,96273.78
2023-03-11T19:16:14.204Z,96270.38
2023-03-11T19:18:43.730Z,96279.41
2023-03-11T19:21:12.581Z,96272.06
2023-03-11T19:23:40.703Z,96273.66
2023-03-11T19:26:08.805Z,96280.84
2023-03-11T19:28:36.983Z,96273.53
2023-03-11T19:31:05.547Z,96277.94
2023-03-11T19:33:33.769Z,96280.47
2023-03-11T19:36:04.398Z,96276.72
2023-03-11T19:38:32.637Z,96286.47
2023-03-11T19:41:04.715Z,96291.75
2023-03-11T19:43:32.859Z,96295.25
2023-03-11T19:46:00.956Z,96304.19
2023-03-11T19:48:29.140Z,96305.91
2023-03-11T19:50:58.570Z,96304.91
2023-03-11T19:53:28.166Z,96314.69
2023-03-11T19:55:56.937Z,96317.25
2023-03-11T19:58:28.620Z,96322.63
2023-03-11T20:00:58.097Z,96330.69
2023-03-11T20:03:26.272Z,96333.38
2023-03-11T20:05:56.672Z,96339.63
2023-03-11T20:08:25.449Z,96345.00
2023-03-11T20:10:55.095Z,96345.81
2023-03-11T20:13:23.401Z,96355.63
2023-03-11T20:15:51.726Z,96358.31
2023-03-11T20:18:19.923Z,96356.47
2023-03-11T20:20:48.056Z,96360.84
2023-03-11T20:23:16.237Z,96359.16
2023-03-11T20:25:44.290Z,96356.47
2023-03-11T20:28:13.784Z,96360.84
2023-03-11T20:30:41.934Z,96350.22
2023-03-11T20:33:10.153Z,96353.78
2023-03-11T20:35:38.430Z,96362.56
2023-03-11T20:38:07.913Z,96365.25
2023-03-11T20:40:36.087Z,96357.19
2023-03-11T20:43:04.307Z,96361.56
2023-03-11T20:45:33.816Z,96375.03
2023-03-11T20:48:02.007Z,96369.66
2023-03-11T20:50:30.091Z,96365.13
2023-03-11T20:52:58.207Z,96369.66
2023-03-11T20:55:26.403Z,96372.34
2023-03-11T20:57:54.880Z,96386.63
2023-03-11T21:00:23.526Z,96391.88
2023-03-11T21:02:53.212Z,96392.88
2023-03-11T21:05:21.559Z,96391.16
2023-03-11T21:07:49.783Z,96397.41
2023-03-11T21:10:18.019Z,96406.31
2023-03-11T21:12:46.216Z,96403.63
2023-03-11T21:15:14.332Z,96409.00
2023-03-11T21:17:42.486Z,96409.13
2023-03-11T21:20:13.482Z,96424.28
2023-03-11T21:22:41.676Z,96421.59
2023-03-11T21:25:10.497Z,96428.81
2023-03-11T21:27:38.787Z,96434.19
2023-03-11T21:30:08.059Z,96428.81
2023-03-11T21:32:36.383Z,96439.69
2023-03-11T21:35:04.881Z,96455.69
2023-03-11T21:37:34.489Z,96445.94
2023-03-11T21:40:02.728Z,96452.28
2023-03-11T21:42:31.118Z,96445.94
2023-03-11T21:44:59.345Z,96448.88
2023-03-11T21:47:27.618Z,96447.41
2023-03-11T21:49:55.867Z,96461.97
2023-03-11T21:52:24.047Z,96468.19
2023-03-11T21:54:53.553Z,96481.63
2023-03-11T21:57:21.727Z,96476.41
2023-03-11T21:59:50.122Z,96478.22
2023-03-11T22:02:18.715Z,96486.28
2023-03-11T22:04:47.097Z,96488.25
2023-03-11T22:07:15.432Z,96500.72
2023-03-11T22:09:43.719Z,96492.72
2023-03-11T22:12:13.320Z,96499.00
2023-03-11T22:14:42.466Z,96493.72
2023-03-11T22:17:10.796Z,96507.16
2023-03-11T22:19:39.125Z,96506.31
2023-03-11T22:22:07.272Z,96509.00
2023-03-11T22:24:35.457Z,96510.00
2023-03-11T22:27:03.544Z,96515.38
2023-03-11T22:29:33.035Z,96519.88
2023-03-11T22:32:01.192Z,96508.28
2023-03-11T22:34:29.336Z,96520.13
2023-03-11T22:36:57.421Z,96519.16
2023-03-11T22:39:26.754Z,96530.88
2023-03-11T22:41:54.921Z,96537.25
2023-03-11T22:44:23.041Z,96536.38
2023-03-11T22:46:52.544Z,96534.69
2023-03-11T22:49:20.645Z,96549.09
2023-03-11T22:51:48.768Z,96550.09
2023-03-11T22:54:16.853Z,96547.41
2023-03-11T22:56:44.987Z,96541.28
2023-03-11T22:59:13.089Z,96548.50
2023-03-11T23:01:41.239Z,96545.06
2023-03-11T23:04:10.850Z,96546.06
2023-03-11T23:06:39.010Z,96547.03
2023-03-11T23:09:07.091Z,96540.78
2023-03-11T23:11:35.194Z,96549.84
2023-03-11T23:14:03.280Z,96547.28
2023-03-11T23:16:32.169Z,96553.63
2023-03-11T23:19:01.164Z,96559.88
2023-03-11T23:21:31.388Z,96558.16
2023-03-11T23:23:59.953Z,96557.41
2023-03-11T23:26:28.180Z,96558.41
2023-03-11T23:28:56.351Z,96559.38
2023-03-11T23:31:25.404Z,96565.72
2023-03-11T23:33:53.799Z,96566.69
2023-03-11T23:36:22.595Z,96569.50
2023-03-11T23:38:52.102Z,96579.41
2023-03-11T23:41:21.251Z,96583.06
2023-03-11T23:43:49.356Z,96589.31
2023-03-11T23:46:17.470Z,96587.72
2023-03-11T23:48:45.634Z,96585.03
2023-03-11T23:51:13.704Z,96586.00
2023-03-11T23:53:41.825Z,96596.75
2023-03-11T23:56:12.660Z,96599.56
2023-03-11T23:58:40.934Z,96605.06
